Gordon, Ohio
Current Conditions -  °F | °C
As of 9:56 PM on Sunday 21 Dec 2014 (Local Time) from KDAY Reporting Station
Haze Haze  
Wind Chill: 19°   Ceiling: Unl
Heat Index: 27°   Visibility: 6mi
Dew Point: 24°   Wind: 7mph
Humidity: 89%   Direction: 120°ESE
Pressure: 30.15"   Gusts: NA
Location:  39.93°N, 84.51°W
Report Text: KDAY 220256Z 12006KT 6SM BR SCT250 M03/M04 A3015 RMK AO2 SLP221 T10281044 58009
Loading
Personal Weather Stations






























Interactive Weather Map New forecast layout! Learn more

10-Day Weather Forecast

Advertisements
Track Severe Weather on mobile